Werner, North Dakota
Current Conditions -  °F | °C
As of 9:55 PM on Friday 21 Nov 2014 (Local Time) from KHZE Reporting Station
Clear Clear  
Wind Chill: 26°   Ceiling: Unl
Heat Index: 32°   Visibility: 10mi
Dew Point: 27°   Wind: 6mph
Humidity: 80%   Direction: 230°SW
Pressure: 29.67"   Gusts: NA
Location:  47.343°N, 102.335°W
Report Text: KHZE 220455Z AUTO 23005KT 10SM CLR 00/M03 A2967 RMK AO2
Loading
Personal Weather Stations






























Interactive Weather Map New forecast layout! Learn more

10-Day Weather Forecast

Advertisements
Track Severe Weather on mobile